createdAt,value
2019-05-11T00:01:11.990Z,10.01
2019-05-11T00:03:41.363Z,10.01
2019-05-11T00:06:10.723Z,10.01
2019-05-11T00:08:40.075Z,9.99
2019-05-11T00:11:09.473Z,9.94
2019-05-11T00:13:38.834Z,9.90
2019-05-11T00:16:08.198Z,9.89
2019-05-11T00:18:38.210Z,9.86
2019-05-11T00:21:07.568Z,9.82
2019-05-11T00:23:36.921Z,9.79
2019-05-11T00:26:06.278Z,9.79
2019-05-11T00:28:35.631Z,9.78
2019-05-11T00:31:05.184Z,9.77
2019-05-11T00:33:34.544Z,9.75
2019-05-11T00:36:03.981Z,9.75
2019-05-11T00:38:33.321Z,9.76
2019-05-11T00:41:02.672Z,9.75
2019-05-11T00:43:32.037Z,9.74
2019-05-11T00:46:01.392Z,9.73
2019-05-11T00:48:30.761Z,9.73
2019-05-11T00:51:01.176Z,9.74
2019-05-11T00:53:30.550Z,9.78
2019-05-11T00:55:59.899Z,9.80
2019-05-11T00:58:29.259Z,9.80
2019-05-11T01:00:58.612Z,9.83
2019-05-11T01:03:28.000Z,9.76
2019-05-11T01:05:57.355Z,9.82
2019-05-11T01:08:26.714Z,9.82
2019-05-11T01:10:56.071Z,9.75
2019-05-11T01:13:25.812Z,9.82
2019-05-11T01:15:55.165Z,9.79
2019-05-11T01:18:24.562Z,9.84
2019-05-11T01:20:53.942Z,9.83
2019-05-11T01:23:23.323Z,9.82
2019-05-11T01:25:52.696Z,9.78
2019-05-11T01:28:22.068Z,9.71
2019-05-11T01:30:51.443Z,9.74
2019-05-11T01:33:20.848Z,9.74
2019-05-11T01:35:51.194Z,9.73
2019-05-11T01:38:20.650Z,9.76
2019-05-11T01:40:58.912Z,9.74
2019-05-11T01:43:21.099Z,9.74
2019-05-11T01:45:50.457Z,9.76
2019-05-11T01:48:19.824Z,9.79
2019-05-11T01:50:49.176Z,9.78
2019-05-11T01:53:18.549Z,9.78
2019-05-11T01:55:47.928Z,9.84
2019-05-11T01:58:17.307Z,9.83
2019-05-11T02:00:46.670Z,9.82
2019-05-11T02:03:16.211Z,9.81
2019-05-11T02:05:45.601Z,9.82
2019-05-11T02:08:14.961Z,9.84
2019-05-11T02:10:44.394Z,9.89
2019-05-11T02:13:13.708Z,9.89
2019-05-11T02:15:43.073Z,9.83
2019-05-11T02:18:13.104Z,9.88
2019-05-11T02:20:42.501Z,9.88
2019-05-11T02:23:11.879Z,9.84
2019-05-11T02:25:41.225Z,9.84
2019-05-11T02:28:10.581Z,9.80
2019-05-11T02:30:39.957Z,9.77
2019-05-11T02:33:09.311Z,9.75
2019-05-11T02:35:38.724Z,9.74
2019-05-11T02:38:08.061Z,9.74
2019-05-11T02:40:37.458Z,9.71
2019-05-11T02:43:06.912Z,9.72
2019-05-11T02:45:40.989Z,9.72
2019-05-11T02:48:10.355Z,9.71
2019-05-11T02:50:39.779Z,9.69
2019-05-11T02:53:09.644Z,9.68
2019-05-11T02:55:39.551Z,9.66
2019-05-11T02:58:09.287Z,9.66
2019-05-11T03:00:43.979Z,9.66
2019-05-11T03:03:14.417Z,9.66
2019-05-11T03:05:43.769Z,9.60
2019-05-11T03:08:13.160Z,9.62
2019-05-11T03:10:42.517Z,9.61
2019-05-11T03:13:11.861Z,9.60
2019-05-11T03:15:41.291Z,9.57
2019-05-11T03:18:10.641Z,9.59
2019-05-11T03:20:40.010Z,9.53
2019-05-11T03:23:09.347Z,9.53
2019-05-11T03:25:38.748Z,9.57
2019-05-11T03:28:08.046Z,9.55
2019-05-11T03:30:37.420Z,9.56
2019-05-11T03:33:07.746Z,9.58
2019-05-11T03:35:38.114Z,9.57
2019-05-11T03:38:07.488Z,9.57
2019-05-11T03:40:36.850Z,9.56
2019-05-11T03:43:06.204Z,9.54
2019-05-11T03:45:35.566Z,9.53
2019-05-11T03:48:04.937Z,9.52
2019-05-11T03:50:34.311Z,9.51
2019-05-11T03:53:03.733Z,9.50
2019-05-11T03:55:33.111Z,9.48
2019-05-11T03:58:02.497Z,9.44
2019-05-11T04:00:31.866Z,9.41
2019-05-11T04:03:01.270Z,9.42
2019-05-11T04:05:30.757Z,9.43
2019-05-11T04:08:00.103Z,9.41
2019-05-11T04:10:29.478Z,9.42
2019-05-11T04:12:58.835Z,9.42
2019-05-11T04:15:28.192Z,9.41
2019-05-11T04:17:57.573Z,9.40
2019-05-11T04:20:26.931Z,9.38
2019-05-11T04:22:56.311Z,9.36
2019-05-11T04:25:25.687Z,9.37
2019-05-11T04:27:55.065Z,9.38
2019-05-11T04:30:24.419Z,9.39
2019-05-11T04:32:53.804Z,9.41
2019-05-11T04:35:23.202Z,9.45
2019-05-11T04:37:52.547Z,9.45
2019-05-11T04:40:21.947Z,9.42
2019-05-11T04:42:55.544Z,9.44
2019-05-11T04:45:22.439Z,9.45
2019-05-11T04:47:51.794Z,9.47
2019-05-11T04:50:21.163Z,9.48
2019-05-11T04:52:50.538Z,9.50
2019-05-11T04:55:20.940Z,9.50
2019-05-11T04:57:50.269Z,9.50
2019-05-11T05:00:20.217Z,9.52
2019-05-11T05:02:49.584Z,9.55
2019-05-11T05:05:18.946Z,9.58
2019-05-11T05:07:50.490Z,9.61
2019-05-11T05:10:21.935Z,9.63
2019-05-11T05:12:51.700Z,9.63
2019-05-11T05:15:21.525Z,9.64
2019-05-11T05:17:50.922Z,9.67
2019-05-11T05:20:20.268Z,9.66
2019-05-11T05:22:49.688Z,9.68
2019-05-11T05:25:19.053Z,9.67
2019-05-11T05:27:48.423Z,9.68
2019-05-11T05:30:17.865Z,9.69
2019-05-11T05:32:47.240Z,9.70
2019-05-11T05:35:16.755Z,9.65
2019-05-11T05:37:46.115Z,9.66
2019-05-11T05:40:16.618Z,9.66
2019-05-11T05:42:46.009Z,9.64
2019-05-11T05:45:15.363Z,9.60
2019-05-11T05:47:44.734Z,9.65
2019-05-11T05:50:14.585Z,9.75
2019-05-11T05:52:43.950Z,9.82
2019-05-11T05:55:13.670Z,9.98
2019-05-11T05:57:44.027Z,9.98
2019-05-11T06:00:13.633Z,10.05
2019-05-11T06:02:43.001Z,10.05
2019-05-11T06:05:12.538Z,10.06
2019-05-11T06:07:41.892Z,10.09
2019-05-11T06:10:11.602Z,10.13
2019-05-11T06:12:40.972Z,10.16
2019-05-11T06:15:10.478Z,10.21
2019-05-11T06:17:39.865Z,10.21
2019-05-11T06:20:10.075Z,10.23
2019-05-11T06:22:39.450Z,10.18
2019-05-11T06:25:08.981Z,10.21
2019-05-11T06:27:38.397Z,10.26
2019-05-11T06:30:08.301Z,10.28
2019-05-11T06:32:37.715Z,10.31
2019-05-11T06:35:08.695Z,10.33
2019-05-11T06:37:38.091Z,10.30
2019-05-11T06:40:07.981Z,10.27
2019-05-11T06:42:37.391Z,10.22
2019-05-11T06:45:07.196Z,10.20
2019-05-11T06:47:36.576Z,10.24
2019-05-11T06:50:07.201Z,10.26
2019-05-11T06:52:36.599Z,10.26
2019-05-11T06:55:06.437Z,10.26
2019-05-11T06:57:35.799Z,10.25
2019-05-11T07:00:06.147Z,10.21
2019-05-11T07:02:35.538Z,10.24
2019-05-11T07:05:06.774Z,10.26
2019-05-11T07:07:47.008Z,10.28
2019-05-11T07:10:07.869Z,10.28
2019-05-11T07:12:37.265Z,10.40
2019-05-11T07:15:07.203Z,10.40
2019-05-11T07:17:36.576Z,10.48
2019-05-11T07:20:08.028Z,10.51
2019-05-11T07:22:37.509Z,10.56
2019-05-11T07:25:07.590Z,10.61
2019-05-11T07:27:36.983Z,10.63
2019-05-11T07:30:07.934Z,10.65
2019-05-11T07:32:38.180Z,10.66
2019-05-11T07:35:09.031Z,10.72
2019-05-11T07:37:38.837Z,10.76
2019-05-11T07:40:09.104Z,10.88
2019-05-11T07:42:38.507Z,11.02
2019-05-11T07:45:09.324Z,11.23
2019-05-11T07:47:38.709Z,11.37
2019-05-11T07:50:09.005Z,11.45
2019-05-11T07:52:39.364Z,11.53
2019-05-11T07:55:08.893Z,11.58
2019-05-11T07:57:39.196Z,11.68
2019-05-11T08:00:10.312Z,11.75
2019-05-11T08:02:39.694Z,11.83
2019-05-11T08:05:09.410Z,11.99
2019-05-11T08:07:38.758Z,12.17
2019-05-11T08:10:08.545Z,12.34
2019-05-11T08:12:39.205Z,12.47
2019-05-11T08:15:13.225Z,12.55
2019-05-11T08:17:40.194Z,12.75
2019-05-11T08:20:09.890Z,13.14
2019-05-11T08:22:39.283Z,13.43
2019-05-11T08:25:09.359Z,13.47
2019-05-11T08:27:39.824Z,13.49
2019-05-11T08:30:13.841Z,13.55
2019-05-11T08:32:43.274Z,13.49
2019-05-11T08:35:12.794Z,13.49
2019-05-11T08:37:42.148Z,13.35
2019-05-11T08:40:15.539Z,13.32
2019-05-11T08:42:44.893Z,13.37
2019-05-11T08:45:20.150Z,13.27
2019-05-11T08:47:45.397Z,13.21
2019-05-11T08:50:15.619Z,13.23
2019-05-11T08:52:45.065Z,13.28
2019-05-11T08:55:14.563Z,13.47
2019-05-11T08:57:43.946Z,13.85
2019-05-11T09:00:14.371Z,14.51
2019-05-11T09:02:46.890Z,15.29
2019-05-11T09:05:14.881Z,15.76
2019-05-11T09:07:44.292Z,15.57
2019-05-11T09:10:14.708Z,15.46
2019-05-11T09:12:44.067Z,15.32
2019-05-11T09:15:28.081Z,15.83
2019-05-11T09:17:44.890Z,15.99
2019-05-11T09:20:14.610Z,15.85
2019-05-11T09:22:44.000Z,15.76
2019-05-11T09:25:13.506Z,15.88
2019-05-11T09:27:43.516Z,15.88
2019-05-11T09:30:13.312Z,15.77
2019-05-11T09:32:42.670Z,15.66
2019-05-11T09:35:13.659Z,15.51
2019-05-11T09:37:43.019Z,15.32
2019-05-11T09:40:12.536Z,15.54
2019-05-11T09:42:41.905Z,16.62
2019-05-11T09:45:11.531Z,16.67
2019-05-11T09:47:40.927Z,17.54
2019-05-11T09:50:10.452Z,17.62
2019-05-11T09:52:39.835Z,18.53
2019-05-11T09:55:09.310Z,19.43
2019-05-11T09:57:38.669Z,19.67
2019-05-11T10:00:08.883Z,19.13
2019-05-11T10:02:38.757Z,18.67
2019-05-11T10:05:08.898Z,19.37
2019-05-11T10:07:38.397Z,18.97
2019-05-11T10:10:09.513Z,18.68
2019-05-11T10:12:39.775Z,18.33
2019-05-11T10:15:09.408Z,17.95
2019-05-11T10:17:38.762Z,17.64
2019-05-11T10:20:09.520Z,18.16
2019-05-11T10:22:38.930Z,18.07
2019-05-11T10:25:09.151Z,18.05
2019-05-11T10:27:38.657Z,18.39
2019-05-11T10:30:09.243Z,18.41
2019-05-11T10:32:39.270Z,18.46
2019-05-11T10:35:08.891Z,18.31
2019-05-11T10:37:39.123Z,18.45
2019-05-11T10:40:09.982Z,18.42
2019-05-11T10:42:39.392Z,17.95
2019-05-11T10:45:09.286Z,17.41
2019-05-11T10:47:39.818Z,17.22
2019-05-11T10:50:09.638Z,16.97
2019-05-11T10:52:39.025Z,16.86
2019-05-11T10:55:09.348Z,17.10
2019-05-11T10:57:38.971Z,17.25
2019-05-11T11:00:09.773Z,17.26
2019-05-11T11:02:39.139Z,17.24
2019-05-11T11:05:08.664Z,17.06
2019-05-11T11:07:38.527Z,17.03
2019-05-11T11:10:09.031Z,16.77
2019-05-11T11:12:38.810Z,16.53
2019-05-11T11:15:09.938Z,16.57
2019-05-11T11:17:39.322Z,16.77
2019-05-11T11:20:09.715Z,16.83
2019-05-11T11:22:43.382Z,16.81
2019-05-11T11:25:10.501Z,16.66
2019-05-11T11:27:39.873Z,16.51
2019-05-11T11:30:10.539Z,16.29
2019-05-11T11:32:39.931Z,16.25
2019-05-11T11:35:09.518Z,16.33
2019-05-11T11:37:38.935Z,16.27
2019-05-11T11:40:08.729Z,16.22
2019-05-11T11:42:38.119Z,16.16
2019-05-11T11:45:09.594Z,16.15
2019-05-11T11:47:38.979Z,16.14
2019-05-11T11:50:09.474Z,16.04
2019-05-11T11:52:38.888Z,15.98
2019-05-11T11:55:09.692Z,16.05
2019-05-11T11:57:39.078Z,16.25
2019-05-11T12:00:09.351Z,16.34
2019-05-11T12:02:39.031Z,16.30
2019-05-11T12:05:08.897Z,16.01
2019-05-11T12:07:38.785Z,15.74
2019-05-11T12:10:09.035Z,15.62
2019-05-11T12:12:38.780Z,15.56
2019-05-11T12:15:09.001Z,15.53
2019-05-11T12:17:38.558Z,15.57
2019-05-11T12:20:08.978Z,15.79
2019-05-11T12:22:38.815Z,16.10
2019-05-11T12:25:09.039Z,16.18
2019-05-11T12:27:38.645Z,16.15
2019-05-11T12:30:09.474Z,16.01
2019-05-11T12:32:40.507Z,15.98
2019-05-11T12:35:09.926Z,16.02
2019-05-11T12:37:39.270Z,16.10
2019-05-11T12:40:10.187Z,16.34
2019-05-11T12:42:39.526Z,16.55
2019-05-11T12:45:10.430Z,16.66
2019-05-11T12:47:39.832Z,16.53
2019-05-11T12:50:10.127Z,16.17
2019-05-11T12:52:39.514Z,15.93
2019-05-11T12:55:09.425Z,15.90
2019-05-11T12:57:38.841Z,15.98
2019-05-11T13:00:08.846Z,15.95
2019-05-11T13:02:38.814Z,15.29
2019-05-11T13:05:08.884Z,14.58
2019-05-11T13:07:39.182Z,14.07
2019-05-11T13:10:09.220Z,13.77
2019-05-11T13:12:39.306Z,13.60
2019-05-11T13:15:09.116Z,13.45
2019-05-11T13:17:41.030Z,13.27
2019-05-11T13:20:12.777Z,13.22
2019-05-11T13:22:41.799Z,13.23
2019-05-11T13:25:11.270Z,13.22
2019-05-11T13:27:40.624Z,13.18
2019-05-11T13:30:10.448Z,13.11
2019-05-11T13:32:39.801Z,13.10
2019-05-11T13:35:09.400Z,13.17
2019-05-11T13:37:38.897Z,13.30
2019-05-11T13:40:08.957Z,13.43
2019-05-11T13:42:38.688Z,13.50
2019-05-11T13:45:08.701Z,13.53
2019-05-11T13:47:51.254Z,13.57
2019-05-11T13:50:09.376Z,13.56
2019-05-11T13:52:38.801Z,13.47
2019-05-11T13:55:08.245Z,13.43
2019-05-11T13:57:38.361Z,13.50
2019-05-11T14:00:08.698Z,13.50
2019-05-11T14:02:38.200Z,13.50
2019-05-11T14:05:09.034Z,13.54
2019-05-11T14:07:38.448Z,13.56
2019-05-11T14:10:09.251Z,13.59
2019-05-11T14:12:38.834Z,13.69
2019-05-11T14:15:09.389Z,13.90
2019-05-11T14:17:38.778Z,14.17
2019-05-11T14:20:09.235Z,14.57
2019-05-11T14:22:39.225Z,14.97
2019-05-11T14:25:09.129Z,15.28
2019-05-11T14:27:39.228Z,15.58
2019-05-11T14:30:09.600Z,15.81
2019-05-11T14:32:39.116Z,15.95
2019-05-11T14:35:12.047Z,15.96
2019-05-11T14:37:39.996Z,15.88
2019-05-11T14:40:09.527Z,15.73
2019-05-11T14:42:38.895Z,15.66
2019-05-11T14:45:09.383Z,15.71
2019-05-11T14:47:42.169Z,15.92
2019-05-11T14:50:09.964Z,16.23
2019-05-11T14:52:39.344Z,16.54
2019-05-11T14:55:10.332Z,16.77
2019-05-11T14:57:39.875Z,16.96
2019-05-11T15:00:09.473Z,16.91
2019-05-11T15:02:49.140Z,16.83
2019-05-11T15:05:20.434Z,16.75
2019-05-11T15:07:52.392Z,16.68
2019-05-11T15:10:21.163Z,16.61
2019-05-11T15:12:50.509Z,16.51
2019-05-11T15:15:20.131Z,16.44
2019-05-11T15:17:49.641Z,16.41
2019-05-11T15:20:18.992Z,16.35
2019-05-11T15:22:49.050Z,16.20
2019-05-11T15:25:19.700Z,15.99
2019-05-11T15:27:49.189Z,15.78
2019-05-11T15:30:19.114Z,15.63
2019-05-11T15:32:48.624Z,15.54
2019-05-11T15:35:18.768Z,15.50
2019-05-11T15:37:48.504Z,15.53
2019-05-11T15:40:19.177Z,15.61
2019-05-11T15:42:48.941Z,15.72
2019-05-11T15:45:20.275Z,15.78
2019-05-11T15:47:49.648Z,15.89
2019-05-11T15:50:19.705Z,16.02
2019-05-11T15:52:49.282Z,16.21
2019-05-11T15:55:19.483Z,16.31
2019-05-11T15:57:48.885Z,16.36
2019-05-11T16:00:19.083Z,16.46
2019-05-11T16:02:49.153Z,16.57
2019-05-11T16:05:19.526Z,16.50
2019-05-11T16:07:49.470Z,16.33
2019-05-11T16:10:19.239Z,16.15
2019-05-11T16:12:49.119Z,15.99
2019-05-11T16:15:19.539Z,15.82
2019-05-11T16:17:49.672Z,15.66
2019-05-11T16:20:19.278Z,15.53
2019-05-11T16:22:48.664Z,15.40
2019-05-11T16:25:19.749Z,15.33
2019-05-11T16:27:49.451Z,15.28
2019-05-11T16:30:21.653Z,15.24
2019-05-11T16:32:50.465Z,15.18
2019-05-11T16:35:20.077Z,15.13
2019-05-11T16:37:49.451Z,15.09
2019-05-11T16:40:20.831Z,15.04
2019-05-11T16:42:50.192Z,14.99
2019-05-11T16:45:21.615Z,14.96
2019-05-11T16:47:50.727Z,14.92
2019-05-11T16:50:20.272Z,14.85
2019-05-11T16:52:49.629Z,14.82
2019-05-11T16:55:18.976Z,14.79
2019-05-11T16:57:48.987Z,14.74
2019-05-11T17:00:18.932Z,14.69
2019-05-11T17:02:49.227Z,14.62
2019-05-11T17:05:26.272Z,14.58
2019-05-11T17:07:49.888Z,14.52
2019-05-11T17:10:20.353Z,14.44
2019-05-11T17:12:50.683Z,14.37
2019-05-11T17:15:20.044Z,14.31
2019-05-11T17:17:49.680Z,14.24
2019-05-11T17:20:19.435Z,14.22
2019-05-11T17:22:49.259Z,14.19
2019-05-11T17:25:19.586Z,14.13
2019-05-11T17:27:49.406Z,14.07
2019-05-11T17:30:20.052Z,14.02
2019-05-11T17:32:49.968Z,13.99
2019-05-11T17:35:19.495Z,13.94
2019-05-11T17:37:49.832Z,13.93
2019-05-11T17:40:23.423Z,13.89
2019-05-11T17:42:53.508Z,13.84
2019-05-11T17:45:21.730Z,13.79
2019-05-11T17:47:51.078Z,13.72
2019-05-11T17:50:20.427Z,13.67
2019-05-11T17:52:49.798Z,13.63
2019-05-11T17:55:20.135Z,13.59
2019-05-11T17:57:53.385Z,13.53
2019-05-11T18:00:20.737Z,13.48
2019-05-11T18:02:50.265Z,13.43
2019-05-11T18:05:19.637Z,13.36
2019-05-11T18:07:49.010Z,13.30
2019-05-11T18:10:18.600Z,13.28
2019-05-11T18:12:48.648Z,13.25
2019-05-11T18:15:19.192Z,13.22
2019-05-11T18:17:49.073Z,13.18
2019-05-11T18:20:21.765Z,13.10
2019-05-11T18:22:49.896Z,13.04
2019-05-11T18:25:19.268Z,12.98
2019-05-11T18:27:48.635Z,12.92
2019-05-11T18:30:18.458Z,12.88
2019-05-11T18:32:49.001Z,12.82
2019-05-11T18:35:19.919Z,12.79
2019-05-11T18:37:50.258Z,12.74
2019-05-11T18:40:19.631Z,12.66
2019-05-11T18:42:49.221Z,12.59
2019-05-11T18:45:19.216Z,12.52
2019-05-11T18:47:49.231Z,12.46
2019-05-11T18:50:29.788Z,12.39
2019-05-11T18:52:49.898Z,12.34
2019-05-11T18:55:19.407Z,12.25
2019-05-11T18:57:49.424Z,12.19
2019-05-11T19:00:19.745Z,12.11
2019-05-11T19:02:49.747Z,12.05
2019-05-11T19:05:19.317Z,11.99
2019-05-11T19:07:48.695Z,11.90
2019-05-11T19:10:18.120Z,11.82
2019-05-11T19:12:48.804Z,11.76
2019-05-11T19:15:19.076Z,11.72
2019-05-11T19:17:49.276Z,11.65
2019-05-11T19:20:18.776Z,11.54
2019-05-11T19:22:48.217Z,11.44
2019-05-11T19:25:18.193Z,11.37
2019-05-11T19:27:50.362Z,11.31
2019-05-11T19:30:20.143Z,11.25
2019-05-11T19:32:49.505Z,11.18
2019-05-11T19:35:21.178Z,11.11
2019-05-11T19:37:49.945Z,11.03
2019-05-11T19:40:19.296Z,10.94
2019-05-11T19:42:55.811Z,10.89
2019-05-11T19:45:25.376Z,10.79
2019-05-11T19:47:54.729Z,10.71
2019-05-11T19:50:24.086Z,10.66
2019-05-11T19:52:53.465Z,10.60
2019-05-11T19:55:22.838Z,10.53
2019-05-11T19:57:52.207Z,10.45
2019-05-11T20:00:21.841Z,10.39
2019-05-11T20:02:51.182Z,10.34
2019-05-11T20:05:20.553Z,10.28
2019-05-11T20:07:49.912Z,10.26
2019-05-11T20:10:19.378Z,10.22
2019-05-11T20:12:48.824Z,10.17
2019-05-11T20:15:19.142Z,10.07
2019-05-11T20:17:49.562Z,10.07
2019-05-11T20:20:19.072Z,10.01
2019-05-11T20:22:48.836Z,9.93
2019-05-11T20:25:19.123Z,9.87
2019-05-11T20:27:50.090Z,9.81
2019-05-11T20:30:19.620Z,9.79
2019-05-11T20:32:49.437Z,9.66
2019-05-11T20:35:18.973Z,9.66
2019-05-11T20:37:48.431Z,9.60
2019-05-11T20:40:19.196Z,9.53
2019-05-11T20:42:48.851Z,9.50
2019-05-11T20:45:18.719Z,9.44
2019-05-11T20:47:48.842Z,9.25
2019-05-11T20:50:18.759Z,9.24
2019-05-11T20:52:48.573Z,9.24
2019-05-11T20:55:18.470Z,9.18
2019-05-11T20:57:48.624Z,9.13
2019-05-11T21:00:19.329Z,9.08
2019-05-11T21:02:49.215Z,9.03
2019-05-11T21:05:18.730Z,8.96
2019-05-11T21:07:48.037Z,8.91
2019-05-11T21:10:17.669Z,8.86
2019-05-11T21:12:47.019Z,8.80
2019-05-11T21:15:16.560Z,8.76
2019-05-11T21:17:48.192Z,8.72
2019-05-11T21:20:18.128Z,8.66
2019-05-11T21:22:48.692Z,8.62
2019-05-11T21:25:18.415Z,8.55
2019-05-11T21:27:48.663Z,8.47
2019-05-11T21:30:18.649Z,8.44
2019-05-11T21:32:48.909Z,8.39
2019-05-11T21:35:19.142Z,8.31
2019-05-11T21:37:48.951Z,8.27
2019-05-11T21:40:18.415Z,8.20
2019-05-11T21:42:47.860Z,8.15
2019-05-11T21:45:18.327Z,8.09
2019-05-11T21:47:49.076Z,8.04
2019-05-11T21:50:19.477Z,7.99
2019-05-11T21:52:48.807Z,7.96
2019-05-11T21:55:19.123Z,7.92
2019-05-11T21:57:49.817Z,7.88
2019-05-11T22:00:20.151Z,7.86
2019-05-11T22:02:51.124Z,7.81
2019-05-11T22:05:21.056Z,7.75
2019-05-11T22:07:50.379Z,7.71
2019-05-11T22:10:19.808Z,7.66
2019-05-11T22:12:49.197Z,7.63
2019-05-11T22:15:18.515Z,7.59
2019-05-11T22:17:48.165Z,7.56
2019-05-11T22:20:18.419Z,7.51
2019-05-11T22:22:48.913Z,7.46
2019-05-11T22:25:18.553Z,7.40
2019-05-11T22:27:48.821Z,7.36
2019-05-11T22:30:18.787Z,7.34
2019-05-11T22:32:49.109Z,7.32
2019-05-11T22:35:18.635Z,7.29
2019-05-11T22:37:49.048Z,7.27
2019-05-11T22:40:18.789Z,7.24
2019-05-11T22:42:48.135Z,7.22
2019-05-11T22:45:18.674Z,7.17
2019-05-11T22:47:48.782Z,7.13
2019-05-11T22:50:18.848Z,7.07
2019-05-11T22:52:48.593Z,7.05
2019-05-11T22:55:19.194Z,7.05
2019-05-11T22:57:48.805Z,7.00
2019-05-11T23:00:21.267Z,6.95
2019-05-11T23:02:50.609Z,6.88
2019-05-11T23:05:19.983Z,6.81
2019-05-11T23:07:49.371Z,6.74
2019-05-11T23:10:18.710Z,6.70
2019-05-11T23:12:48.358Z,6.64
2019-05-11T23:15:19.184Z,6.58
2019-05-11T23:17:48.544Z,6.54
2019-05-11T23:20:18.119Z,6.48
2019-05-11T23:22:56.738Z,6.44
2019-05-11T23:25:19.642Z,6.38
2019-05-11T23:27:49.150Z,6.33
2019-05-11T23:30:19.799Z,6.26
2019-05-11T23:32:50.751Z,6.21
2019-05-11T23:35:20.136Z,6.15
2019-05-11T23:37:50.154Z,6.11
2019-05-11T23:40:19.984Z,6.08
2019-05-11T23:42:49.490Z,6.03
2019-05-11T23:45:19.414Z,5.99
2019-05-11T23:47:49.265Z,5.93
2019-05-11T23:50:19.336Z,5.88
2019-05-11T23:53:05.167Z,5.84
2019-05-11T23:55:20.192Z,5.80
2019-05-11T23:57:49.719Z,5.75
